Terminal Aerodrome Forecast
Issued by NWS Detroit/Pontiac, MI

Home | Current Version | Previous Version | Text Only | Print | Product List | Glossary On
Versions: 1 2 3 4 5 6 7 8 9 10 11 12 13 14 15 16 17 18
000
FTUS43 KDTX 301725
TAFFNT
TAF
KFNT 301725Z 3018/0118 11011KT P6SM OVC150
     FM302100 10011KT 6SM -RA OVC060
     FM302300 08010KT 4SM -RA OVC045
     FM010100 08010KT 3SM -RA BR OVC012
     FM010300 06009KT 3SM -RA BR OVC007
     FM010800 04010KT 4SM RA BR OVC007
     FM011500 03010KT P6SM OVC015=

USA.gov is the U.S. government's official web portal to all federal, state and local government web resources and services.